Azamgarh, India

8:56 PM IST on July 22, 2014 (GMT +0530)
Varanasi (VIBN) Elev 266 ft | 25.45 °N, 82.86 °E | Change Station

Current weather conditions updated 56 minutes ago

Haze
Haze
82 °F
Feels Like 91 °F
N
12
Wind Variable Wind from ESE

Tomorrow is forecast to be Warmer than today.

Today
High -- | Low -- °F
--% Chance of Precip.
Yesterday
High -- | Low -- °F
Precip. -- in
5:17 AM 6:49 PM
Waning Crescent, 16% visible
Pressure 29.42 in
Visibility 3.1 miles
Clouds Scattered Clouds 2000 ft
Mostly Cloudy 10000 ft
Heat Index 91 °F
Dew Point 77 °F
Humidity 84%
Rainfall 0.00 in
Snow Depth Not available.
UV 0 out of 12
Pollen Not available.
Air Quality Not available.
Flu Activity Not available.
METAR VIBN 221430Z 12010KT 5000 HZ SCT020 BKN100 28/25 Q0996

More Conditions Fewer Conditions

Pressure 29.42 in
Visibility 3.1 miles
Clouds Scattered Clouds 2000 ft
Mostly Cloudy 10000 ft
Heat Index 91 °F
Dew Point 77 °F
Humidity 84%
Rainfall 0.00 in
Snow Depth Not available.
UV 0 out of 12
Pollen Not available.
Air Quality Not available.
Flu Activity Not available.
METAR VIBN 221430Z 12010KT 5000 HZ SCT020 BKN100 28/25 Q0996

More Conditions Fewer Conditions

10-Day Weather Forecast

LIGHTNING

Thunderstorms are forecast for your area. Cloud conditions might be right for producing strikes in the next few days, though lightning itself cannot be forecasted.

Lightning is a visible electrical discharge produced by a thunderstorm, based on the build up of oppositely charged particles within a cloud and from cloud to ground.

Know how to stay safe in a lightning storm.

Check out these Lightning WunderPhotos!

Almanac

Astronomy

Jul. 22, 2014 Rise Set
Actual Time 5:17 AM IST 6:49 PM IST
Civil Twilight 4:52 AM IST 7:14 PM IST
Nautical Twilight 4:22 AM IST 7:44 PM IST
Astronomical Twilight 3:50 AM IST 8:16 PM IST
Moon 1:25 AM IST 3:04 PM IST
Length of Visible Light 14h 21m
Length of Day
13h 31m
Tomorrow will be 0m 56s shorter.
Waning Crescent, 16% of the Moon is Illuminated
Today
Waning Crescent
Jul 26
New
Aug 3
First Quarter
Aug 10
Full
Aug 17
Last Quarter

Today's Extremes

Country Highs Country Lows

Community

WunderPhotos

Upload Photos

1,736,265 photos uploaded!

WunderBlogs® & News

Nearby

Snow Depth

Not available.

Earthquake Activity

City Distance Mag. Time & Date
No recent earthquake activity has been reported nearby.
Minimum magnitude displayed is 2.5.

Coastal Water Temperatures

Place Temperature
No Stations Reporting

Nearby Weather Stations

There are no personal weather stations in this area.